Time;durP1;ratioP1;P1;durP2;ratioP2;P2;SDS_P1;SDS_P2;PMS_P1;PMS_P2;Temp;Humidity;BMP_temperature;BMP_pressure;BME280_temperature;BME280_humidity;BME280_pressure;Samples;Min_cycle;Max_cycle;Signal;HPM_P1;HPM_P2
2022/10/21 00:01:04;;;;;;;16.25;12.27;;;15.10;99.90;;;;;;5057021;28;20396;-74
2022/10/21 00:03:30;;;;;;;18.27;12.60;;;15.10;99.90;;;;;;5056564;28;20013;-74
2022/10/21 00:05:56;;;;;;;19.20;12.43;;;15.10;99.90;;;;;;5056799;28;20078;-74
2022/10/21 00:08:22;;;;;;;13.55;10.07;;;15.20;99.90;;;;;;5057008;28;20116;-74
2022/10/21 00:10:56;;;;;;;16.00;11.75;;;15.20;99.90;;;;;;5057014;28;20499;-74
2022/10/21 00:13:23;;;;;;;15.48;11.00;;;15.20;99.90;;;;;;5056831;28;20029;-74
2022/10/21 00:16:04;;;;;;;21.55;13.75;;;15.20;99.90;;;;;;5056491;28;20025;-74
2022/10/21 00:18:31;;;;;;;15.70;11.07;;;15.30;99.90;;;;;;5056527;28;20079;-73
2022/10/21 00:20:56;;;;;;;14.98;11.77;;;15.20;99.90;;;;;;5056893;28;20029;-74
2022/10/21 00:23:22;;;;;;;15.90;11.20;;;15.20;99.90;;;;;;5056314;28;20025;-74
2022/10/21 00:25:47;;;;;;;19.67;12.30;;;15.20;99.90;;;;;;5056565;28;20043;-74
2022/10/21 00:28:13;;;;;;;18.75;13.65;;;15.30;99.90;;;;;;5072909;28;20156;-72
2022/10/21 00:30:43;;;;;;;18.58;13.20;;;15.30;99.90;;;;;;5068746;28;20499;-74
2022/10/21 00:33:10;;;;;;;16.40;12.70;;;15.30;99.90;;;;;;5057982;28;20082;-74
2022/10/21 00:35:36;;;;;;;13.32;11.32;;;15.30;99.90;;;;;;5056368;28;20025;-74
2022/10/21 00:38:01;;;;;;;14.20;11.35;;;15.30;99.90;;;;;;5056096;28;20023;-74
2022/10/21 00:40:27;;;;;;;16.88;12.18;;;15.30;99.90;;;;;;5056062;28;20083;-74
2022/10/21 00:42:52;;;;;;;22.52;15.27;;;15.30;99.90;;;;;;5056286;28;20028;-74
2022/10/21 00:45:24;;;;;;;22.33;15.75;;;15.30;99.90;;;;;;5056067;28;20033;-74
2022/10/21 00:48:07;;;;;;;20.25;14.98;;;15.20;99.90;;;;;;5056349;28;20033;-74
2022/10/21 00:50:38;;;;;;;;;;;15.10;99.90;;;;;;5056752;28;20021;-74
2022/10/21 00:53:07;;;;;;;20.73;13.52;;;15.10;99.90;;;;;;5055874;28;19904;-74
2022/10/21 00:55:38;;;;;;;16.83;13.02;;;15.10;99.90;;;;;;5055600;28;20105;-74
2022/10/21 00:58:06;;;;;;;16.75;13.18;;;15.10;99.90;;;;;;5056102;28;20151;-74
2022/10/21 01:00:31;;;;;;;23.98;14.90;;;15.20;99.90;;;;;;5056075;28;20033;-74
2022/10/21 01:02:58;;;;;;;21.30;15.00;;;15.20;99.90;;;;;;5055954;28;20062;-74
2022/10/21 01:05:24;;;;;;;16.50;11.27;;;15.30;99.90;;;;;;5055253;28;20022;-74
2022/10/21 01:07:50;;;;;;;14.02;10.65;;;15.30;99.90;;;;;;5055618;28;20480;-74
2022/10/21 01:10:16;;;;;;;19.20;13.98;;;15.30;99.90;;;;;;5055668;28;20025;-74
2022/10/21 01:13:06;;;;;;;18.10;12.70;;;15.30;99.90;;;;;;5055495;28;20056;-74
2022/10/21 01:15:34;;;;;;;19.48;15.05;;;15.40;99.90;;;;;;5055478;28;20461;-74
2022/10/21 01:18:20;;;;;;;21.50;15.63;;;15.40;99.90;;;;;;5055809;28;20056;-74
2022/10/21 01:21:12;;;;;;;22.10;15.38;;;15.40;99.90;;;;;;5055545;28;20146;-74
2022/10/21 01:24:16;;;;;;;20.52;14.07;;;15.40;99.90;;;;;;5055802;28;20033;-72
2022/10/21 01:27:00;;;;;;;18.85;13.30;;;15.30;99.90;;;;;;5071044;28;20033;-74
2022/10/21 01:29:56;;;;;;;14.05;10.55;;;15.30;99.90;;;;;;5057393;28;20484;-74
2022/10/21 01:32:33;;;;;;;20.48;14.90;;;15.40;99.90;;;;;;5055458;28;20025;-74
2022/10/21 01:35:21;;;;;;;22.17;14.57;;;15.30;99.90;;;;;;5055095;28;20021;-74
2022/10/21 01:38:02;;;;;;;29.30;16.42;;;15.40;99.90;;;;;;5054964;28;20044;-74
2022/10/21 01:40:48;;;;;;;24.10;16.10;;;15.30;99.90;;;;;;5055353;28;20112;-75
2022/10/21 01:43:28;;;;;;;22.70;15.65;;;15.30;99.90;;;;;;5055832;28;20587;-74
2022/10/21 01:45:59;;;;;;;19.05;14.60;;;15.20;99.90;;;;;;5055345;28;20098;-74
2022/10/21 01:48:30;;;;;;;20.23;15.38;;;15.20;99.90;;;;;;5055162;28;20037;-74
2022/10/21 01:51:00;;;;;;;21.77;16.05;;;15.20;99.90;;;;;;5055121;28;20023;-74
2022/10/21 01:53:30;;;;;;;22.77;15.27;;;15.20;99.90;;;;;;5054866;28;20025;-74
2022/10/21 01:55:57;;;;;;;22.20;15.00;;;15.20;99.90;;;;;;5054633;28;20038;-74
2022/10/21 01:58:27;;;;;;;18.08;14.50;;;15.20;99.90;;;;;;5054638;28;20473;-74
2022/10/21 02:00:56;;;;;;;27.50;16.45;;;15.20;99.90;;;;;;5055050;28;20103;-74
2022/10/21 02:03:25;;;;;;;24.48;16.33;;;15.20;99.90;;;;;;5054731;28;20369;-74
2022/10/21 02:05:51;;;;;;;18.35;13.70;;;15.20;99.90;;;;;;5054701;28;20025;-74
2022/10/21 02:08:17;;;;;;;17.40;12.55;;;15.20;99.90;;;;;;5054133;28;20551;-74
2022/10/21 02:11:00;;;;;;;20.45;14.48;;;15.20;99.90;;;;;;5054764;28;20116;-75
2022/10/21 02:13:33;;;;;;;22.33;15.60;;;15.30;99.90;;;;;;5054712;28;20029;-73
2022/10/21 02:16:02;;;;;;;19.90;14.52;;;15.30;99.90;;;;;;5053967;28;20041;-73
2022/10/21 02:18:28;;;;;;;19.00;14.15;;;15.30;99.90;;;;;;5054444;28;20025;-74
2022/10/21 02:20:58;;;;;;;22.83;15.30;;;15.30;99.90;;;;;;5065061;28;20033;-72
2022/10/21 02:23:50;;;;;;;22.38;16.00;;;15.40;99.90;;;;;;5072060;28;20025;-73
2022/10/21 02:26:16;;;;;;;20.27;15.30;;;15.30;99.90;;;;;;5046757;28;20060;-73
2022/10/21 02:28:42;;;;;;;23.08;16.17;;;15.30;99.90;;;;;;5053546;28;20049;-73
2022/10/21 02:31:35;;;;;;;20.27;15.13;;;15.20;99.90;;;;;;5054189;28;20024;-73
2022/10/21 02:34:18;;;;;;;27.67;16.77;;;15.20;99.90;;;;;;5053939;28;20032;-73
2022/10/21 02:36:46;;;;;;;21.15;15.57;;;15.30;99.90;;;;;;5053974;28;20028;-73
2022/10/21 02:39:21;;;;;;;22.63;13.75;;;15.20;99.90;;;;;;5053907;28;20128;-73
2022/10/21 02:41:49;;;;;;;24.15;15.18;;;15.20;99.90;;;;;;5053878;28;20377;-73
2022/10/21 02:44:15;;;;;;;27.27;16.83;;;15.20;99.90;;;;;;5053715;28;20032;-73
2022/10/21 02:46:42;;;;;;;17.95;13.57;;;15.30;99.90;;;;;;5053753;28;20388;-73
2022/10/21 02:49:09;;;;;;;18.42;13.32;;;15.20;99.90;;;;;;5054074;28;20040;-73
2022/10/21 02:51:35;;;;;;;22.67;15.35;;;15.20;99.90;;;;;;5054077;28;20118;-73
2022/10/21 02:54:00;;;;;;;22.60;15.93;;;15.20;99.90;;;;;;5053467;28;20499;-73
2022/10/21 02:56:26;;;;;;;21.33;15.68;;;15.20;99.90;;;;;;5053614;28;20021;-73
2022/10/21 02:58:52;;;;;;;23.48;15.73;;;15.20;99.90;;;;;;5053545;28;20031;-74
2022/10/21 03:01:18;;;;;;;22.17;14.88;;;15.20;99.90;;;;;;5053760;28;20025;-74
2022/10/21 03:03:43;;;;;;;22.23;14.20;;;15.20;99.90;;;;;;5053854;28;20032;-74
2022/10/21 03:06:09;;;;;;;23.73;15.43;;;15.20;99.90;;;;;;5053637;28;20021;-74
2022/10/21 03:08:35;;;;;;;21.05;14.25;;;15.20;99.90;;;;;;5053418;28;20099;-74
2022/10/21 03:11:00;;;;;;;22.35;13.13;;;15.20;99.90;;;;;;5053851;28;20032;-74
2022/10/21 03:13:26;;;;;;;17.63;13.43;;;15.20;99.90;;;;;;5053868;28;20025;-73
2022/10/21 03:15:51;;;;;;;17.52;14.52;;;15.30;99.90;;;;;;5053832;28;20047;-74
2022/10/21 03:18:17;;;;;;;17.35;12.65;;;15.30;99.90;;;;;;5068252;28;20025;-73
2022/10/21 03:20:43;;;;;;;24.15;14.50;;;15.30;99.90;;;;;;5065498;28;20052;-73
2022/10/21 03:23:09;;;;;;;20.73;14.55;;;15.30;99.90;;;;;;5054424;28;20063;-73
2022/10/21 03:25:34;;;;;;;19.73;14.43;;;15.30;99.90;;;;;;5053833;28;20029;-73
2022/10/21 03:28:00;;;;;;;24.77;15.50;;;15.40;99.90;;;;;;5052790;28;20403;-74
2022/10/21 03:30:25;;;;;;;19.50;16.05;;;15.40;99.90;;;;;;5052938;28;20530;-74
2022/10/21 03:32:51;;;;;;;22.20;15.77;;;15.40;99.90;;;;;;5053527;28;20036;-74
2022/10/21 03:35:17;;;;;;;23.30;17.20;;;15.30;99.90;;;;;;5053098;28;20055;-74
2022/10/21 03:37:42;;;;;;;24.25;16.20;;;15.30;99.90;;;;;;5053172;28;20025;-74
2022/10/21 03:40:08;;;;;;;20.45;15.55;;;15.30;99.90;;;;;;5053419;28;20024;-74
2022/10/21 03:42:34;;;;;;;19.52;14.60;;;15.20;99.90;;;;;;5053072;28;20021;-74
2022/10/21 03:44:59;;;;;;;20.30;15.30;;;15.30;99.90;;;;;;5053023;28;20024;-74
2022/10/21 03:47:25;;;;;;;26.33;16.70;;;15.20;99.90;;;;;;5052956;28;20116;-74
2022/10/21 03:49:51;;;;;;;16.30;13.80;;;15.20;99.90;;;;;;5053244;28;20370;-74
2022/10/21 03:52:16;;;;;;;17.50;13.27;;;15.20;99.90;;;;;;5052912;28;20107;-74
2022/10/21 03:54:42;;;;;;;22.50;15.63;;;15.30;99.90;;;;;;5052805;28;20037;-74
2022/10/21 03:57:07;;;;;;;18.02;14.30;;;15.30;99.90;;;;;;5052860;28;20033;-74
2022/10/21 03:59:33;;;;;;;20.17;14.43;;;15.20;99.90;;;;;;5052851;28;20106;-74
2022/10/21 04:01:58;;;;;;;21.05;14.00;;;15.20;99.90;;;;;;5053165;28;20053;-74
2022/10/21 04:04:24;;;;;;;22.15;15.32;;;15.20;99.90;;;;;;5053140;28;20032;-74
2022/10/21 04:06:50;;;;;;;22.55;16.73;;;15.10;99.90;;;;;;5053208;28;20457;-74
2022/10/21 04:09:15;;;;;;;18.67;14.10;;;15.10;99.90;;;;;;5051458;28;20068;-74
2022/10/21 04:11:41;;;;;;;21.17;14.18;;;15.10;99.90;;;;;;5052917;28;20023;-73
2022/10/21 04:14:07;;;;;;;24.02;15.82;;;15.00;99.90;;;;;;5062341;28;20029;-72
2022/10/21 04:16:33;;;;;;;25.45;15.57;;;15.10;99.90;;;;;;5071660;28;20029;-73
2022/10/21 04:18:59;;;;;;;24.77;14.50;;;15.00;99.90;;;;;;5057826;28;20029;-73
2022/10/21 04:21:24;;;;;;;19.17;14.32;;;15.00;99.90;;;;;;5052679;28;20055;-73
2022/10/21 04:23:50;;;;;;;20.35;12.88;;;15.00;99.90;;;;;;5052934;28;20049;-74
2022/10/21 04:26:16;;;;;;;18.63;12.52;;;15.00;99.90;;;;;;5052584;28;20028;-74
2022/10/21 04:28:41;;;;;;;20.77;14.35;;;15.00;99.90;;;;;;5052012;28;20106;-74
2022/10/21 04:31:07;;;;;;;26.23;17.02;;;15.00;99.90;;;;;;5052890;28;20503;-74
2022/10/21 04:33:33;;;;;;;18.95;13.90;;;15.00;99.90;;;;;;5052675;28;20021;-74
2022/10/21 04:35:58;;;;;;;15.50;12.32;;;15.00;99.90;;;;;;5052535;28;20419;-74
2022/10/21 04:38:24;;;;;;;22.58;14.15;;;15.00;99.90;;;;;;5052702;28;20025;-74
2022/10/21 04:41:01;;;;;;;22.63;14.93;;;15.00;99.90;;;;;;5054918;28;20067;-74
2022/10/21 04:43:27;;;;;;;18.58;13.68;;;15.00;99.90;;;;;;5056350;28;20053;-74
2022/10/21 04:45:53;;;;;;;21.98;14.82;;;15.00;99.90;;;;;;5055982;28;20048;-75
2022/10/21 04:48:20;;;;;;;25.90;15.48;;;15.00;99.90;;;;;;5055773;28;20503;-74
2022/10/21 04:50:49;;;;;;;22.90;15.57;;;15.00;99.90;;;;;;5056040;28;20116;-74
2022/10/21 04:53:15;;;;;;;22.92;15.43;;;14.90;99.90;;;;;;5055926;28;20021;-74
2022/10/21 04:55:40;;;;;;;22.65;13.75;;;14.90;99.90;;;;;;5055709;28;20051;-74
2022/10/21 04:58:06;;;;;;;17.00;11.10;;;14.90;99.90;;;;;;5055984;28;20037;-74
2022/10/21 05:00:31;;;;;;;17.77;12.25;;;14.90;99.90;;;;;;5055417;28;20024;-74
2022/10/21 05:02:58;;;;;;;22.52;13.23;;;15.00;99.90;;;;;;5055988;28;20121;-73
2022/10/21 05:05:23;;;;;;;22.60;15.13;;;14.90;99.90;;;;;;5055852;28;20021;-74
2022/10/21 05:07:49;;;;;;;21.75;14.52;;;14.90;99.90;;;;;;5055947;28;20434;-74
2022/10/21 05:10:14;;;;;;;22.80;15.15;;;14.90;99.90;;;;;;5055553;28;20032;-74
2022/10/21 05:12:40;;;;;;;22.80;14.30;;;14.80;99.90;;;;;;5077077;28;20013;-73
2022/10/21 05:15:06;;;;;;;21.58;15.30;;;14.80;99.90;;;;;;5065276;28;20060;-74
2022/10/21 05:17:31;;;;;;;23.77;13.20;;;14.80;99.90;;;;;;5055727;28;20025;-74
2022/10/21 05:19:57;;;;;;;22.38;13.85;;;14.70;99.90;;;;;;5055448;28;20033;-74
2022/10/21 05:22:22;;;;;;;24.05;14.15;;;14.70;99.90;;;;;;5055540;28;20048;-74
2022/10/21 05:24:48;;;;;;;24.13;13.38;;;14.80;99.90;;;;;;5055125;28;20415;-74
2022/10/21 05:27:14;;;;;;;23.75;14.13;;;14.80;99.90;;;;;;5055419;28;20055;-74
2022/10/21 05:29:39;;;;;;;20.00;14.13;;;14.80;99.90;;;;;;5054894;28;20059;-74
2022/10/21 05:32:05;;;;;;;21.88;14.65;;;14.80;99.90;;;;;;5055285;28;20017;-74
2022/10/21 05:34:31;;;;;;;19.05;13.32;;;14.80;99.90;;;;;;5055447;28;20028;-73
2022/10/21 05:36:56;;;;;;;22.95;13.18;;;14.80;99.90;;;;;;5055219;28;20143;-74
2022/10/21 05:39:22;;;;;;;19.17;13.65;;;14.80;99.90;;;;;;5055119;28;20021;-74
2022/10/21 05:41:47;;;;;;;20.08;13.55;;;14.80;99.90;;;;;;5054978;28;20057;-74
2022/10/21 05:44:13;;;;;;;16.67;11.00;;;14.80;99.90;;;;;;5055136;28;20029;-74
2022/10/21 05:46:39;;;;;;;14.18;10.80;;;14.80;99.90;;;;;;5055105;28;20031;-74
2022/10/21 05:49:05;;;;;;;16.45;12.15;;;14.80;99.90;;;;;;5054675;28;20358;-73
2022/10/21 05:51:31;;;;;;;16.83;11.25;;;14.90;99.90;;;;;;5054612;28;20500;-74
2022/10/21 05:53:57;;;;;;;15.02;10.30;;;14.90;99.90;;;;;;5054739;28;20025;-74
2022/10/21 05:56:22;;;;;;;15.88;10.77;;;14.90;99.90;;;;;;5054990;28;20025;-74
2022/10/21 05:58:48;;;;;;;13.63;8.50;;;15.00;99.90;;;;;;5054605;28;20021;-74
2022/10/21 06:01:14;;;;;;;10.48;9.13;;;15.00;99.90;;;;;;5054594;28;20119;-74
2022/10/21 06:03:40;;;;;;;17.73;8.80;;;15.10;99.90;;;;;;5054660;28;20444;-74
2022/10/21 06:06:07;;;;;;;15.85;11.43;;;15.10;99.90;;;;;;5054889;28;20032;-73
2022/10/21 06:08:35;;;;;;;14.75;10.30;;;15.10;99.90;;;;;;5056036;28;20033;-74
2022/10/21 06:11:09;;;;;;;12.65;9.02;;;15.10;99.90;;;;;;5067509;28;20029;-75
2022/10/21 06:13:36;;;;;;;15.77;9.50;;;15.10;99.90;;;;;;5054805;28;20039;-75
2022/10/21 06:16:03;;;;;;;19.17;13.00;;;15.10;99.90;;;;;;5054577;28;20029;-74
2022/10/21 06:18:29;;;;;;;15.43;11.07;;;15.10;99.90;;;;;;5054614;28;20380;-74
2022/10/21 06:20:55;;;;;;;16.45;10.02;;;15.10;99.90;;;;;;5054167;28;20104;-75
2022/10/21 06:23:20;;;;;;;15.40;10.68;;;15.10;99.90;;;;;;5054123;28;20033;-75
2022/10/21 06:26:04;;;;;;;15.38;11.23;;;15.10;99.90;;;;;;5053864;28;20028;-75
2022/10/21 06:28:33;;;;;;;16.30;10.77;;;15.10;99.90;;;;;;5053914;28;20128;-75
2022/10/21 06:30:58;;;;;;;17.85;10.77;;;15.10;99.90;;;;;;5053816;28;20025;-74
2022/10/21 06:33:24;;;;;;;14.73;10.80;;;15.00;99.90;;;;;;5039812;28;20674;-75
2022/10/21 06:35:50;;;;;;;13.27;9.15;;;15.00;99.90;;;;;;5033622;28;20025;-74
2022/10/21 06:38:17;;;;;;;14.27;10.32;;;15.00;99.90;;;;;;5031914;28;20108;-76
2022/10/21 06:40:43;;;;;;;15.18;9.93;;;15.00;99.90;;;;;;5033449;28;20477;-78
2022/10/21 06:43:10;;;;;;;12.23;9.13;;;14.90;99.90;;;;;;5033673;28;20029;-75
2022/10/21 06:45:35;;;;;;;14.65;10.27;;;15.00;99.90;;;;;;5035909;28;20067;-76
2022/10/21 06:48:01;;;;;;;14.00;9.82;;;15.00;99.90;;;;;;5035850;28;20038;-76
2022/10/21 06:50:27;;;;;;;14.48;10.48;;;15.10;99.90;;;;;;5033588;28;20083;-76
2022/10/21 06:52:53;;;;;;;13.93;10.82;;;15.10;99.90;;;;;;5033410;28;20032;-73
2022/10/21 06:55:19;;;;;;;12.07;8.70;;;15.10;99.90;;;;;;5032059;28;20481;-73
2022/10/21 06:57:44;;;;;;;18.48;10.52;;;15.10;99.90;;;;;;5033453;28;20033;-73
2022/10/21 07:00:12;;;;;;;16.67;10.95;;;15.20;99.90;;;;;;5032763;28;20063;-75
2022/10/21 07:02:37;;;;;;;17.98;11.18;;;15.10;99.90;;;;;;5032815;28;20512;-74
2022/10/21 07:05:04;;;;;;;15.45;11.13;;;15.10;99.90;;;;;;5036287;28;20032;-73
2022/10/21 07:07:30;;;;;;;16.75;11.05;;;15.00;99.90;;;;;;5031764;28;20381;-74
2022/10/21 07:09:56;;;;;;;17.88;11.30;;;15.00;99.90;;;;;;5031881;28;20029;-76
2022/10/21 07:12:23;;;;;;;14.18;9.65;;;15.00;99.90;;;;;;5033195;28;20037;-75
2022/10/21 07:14:49;;;;;;;18.20;11.23;;;15.00;99.90;;;;;;5033623;28;20468;-75
2022/10/21 07:17:15;;;;;;;16.27;10.45;;;15.00;99.90;;;;;;5033519;28;20040;-74
2022/10/21 07:19:40;;;;;;;13.15;8.95;;;15.00;99.90;;;;;;5032526;28;20029;-75
2022/10/21 07:22:06;;;;;;;12.25;9.25;;;15.00;99.90;;;;;;5033087;28;20071;-76
2022/10/21 07:24:32;;;;;;;14.48;9.95;;;15.10;99.90;;;;;;5032904;28;20098;-75
2022/10/21 07:26:58;;;;;;;13.50;8.32;;;15.10;99.90;;;;;;5031894;28;20034;-75
2022/10/21 07:29:23;;;;;;;16.77;10.48;;;15.10;99.90;;;;;;5033132;28;20148;-75
2022/10/21 07:31:49;;;;;;;18.33;10.52;;;15.20;99.90;;;;;;5033422;28;20021;-75
2022/10/21 07:34:15;;;;;;;18.73;11.10;;;15.20;99.90;;;;;;5032827;28;20029;-75
2022/10/21 07:36:46;;;;;;;15.02;10.80;;;15.10;99.90;;;;;;5033408;28;20026;-75
2022/10/21 07:39:15;;;;;;;17.35;10.07;;;15.10;99.90;;;;;;5033239;28;20488;-75
2022/10/21 07:41:44;;;;;;;16.23;10.80;;;15.10;99.90;;;;;;5033073;28;20034;-75
2022/10/21 07:44:10;;;;;;;14.52;10.70;;;15.10;99.90;;;;;;5033190;28;20380;-75
2022/10/21 07:46:38;;;;;;;18.33;9.68;;;15.10;99.90;;;;;;5032741;28;20108;-75
2022/10/21 07:49:04;;;;;;;15.70;10.40;;;15.20;99.90;;;;;;5033232;28;20033;-75
2022/10/21 07:51:29;;;;;;;12.98;9.15;;;15.20;99.90;;;;;;5032654;28;20552;-75
2022/10/21 07:53:56;;;;;;;14.63;10.45;;;15.20;99.90;;;;;;5033116;28;20068;-75
2022/10/21 07:56:25;;;;;;;16.38;10.75;;;15.30;99.90;;;;;;5033291;28;20036;-74
2022/10/21 07:58:51;;;;;;;15.00;10.45;;;15.30;99.90;;;;;;5032631;28;20470;-74
2022/10/21 08:01:18;;;;;;;16.95;10.05;;;15.40;99.90;;;;;;5035808;28;20025;-74
2022/10/21 08:03:45;;;;;;;15.85;10.85;;;15.40;99.90;;;;;;5033783;28;20033;-74
2022/10/21 08:06:12;;;;;;;12.13;8.18;;;15.40;99.90;;;;;;5032657;28;20030;-75
2022/10/21 08:08:38;;;;;;;15.23;9.18;;;15.40;99.90;;;;;;5032623;28;20121;-75
2022/10/21 08:11:05;;;;;;;12.88;8.50;;;15.50;99.90;;;;;;5032851;28;20057;-75
2022/10/21 08:13:30;;;;;;;14.00;9.38;;;15.50;99.90;;;;;;5032667;28;20424;-75
2022/10/21 08:15:57;;;;;;;13.00;9.15;;;15.60;99.90;;;;;;5035855;28;20022;-75
2022/10/21 08:18:23;;;;;;;14.30;8.55;;;15.50;99.90;;;;;;5036785;28;20068;-75
2022/10/21 08:20:48;;;;;;;12.13;8.98;;;15.50;99.90;;;;;;5036014;28;20080;-75
2022/10/21 08:23:17;;;;;;;11.85;8.48;;;15.50;99.90;;;;;;5035236;28;20021;-75
2022/10/21 08:25:51;;;;;;;12.80;9.27;;;15.50;99.90;;;;;;5035254;28;20076;-75
2022/10/21 08:28:18;;;;;;;12.25;8.05;;;15.60;99.90;;;;;;5034977;28;20053;-75
2022/10/21 08:30:44;;;;;;;13.18;9.30;;;15.60;99.90;;;;;;5036351;28;20048;-75
2022/10/21 08:33:11;;;;;;;12.68;9.27;;;15.70;99.90;;;;;;5036333;28;20029;-75
2022/10/21 08:35:38;;;;;;;14.15;9.13;;;15.70;99.90;;;;;;5036437;28;20022;-75
2022/10/21 08:38:04;;;;;;;11.77;7.53;;;15.60;99.90;;;;;;5036469;28;20453;-75
2022/10/21 08:40:36;;;;;;;14.35;8.43;;;15.60;99.90;;;;;;5036305;28;20067;-75
2022/10/21 08:43:24;;;;;;;12.93;8.52;;;15.70;99.90;;;;;;5035975;28;20033;-74
2022/10/21 08:46:12;;;;;;;12.07;8.02;;;15.70;99.90;;;;;;5016003;28;20057;-75
2022/10/21 08:49:04;;;;;;;11.60;8.32;;;15.80;99.90;;;;;;5015905;28;20141;-75
2022/10/21 08:51:40;;;;;;;11.82;7.93;;;15.80;99.90;;;;;;5025545;28;20037;-74
2022/10/21 08:54:13;;;;;;;11.27;8.45;;;15.80;99.90;;;;;;5035499;28;20030;-77
2022/10/21 08:56:40;;;;;;;15.48;9.18;;;15.80;99.90;;;;;;5036361;28;20132;-76
2022/10/21 08:59:19;;;;;;;12.13;7.00;;;15.80;99.90;;;;;;5043416;28;20029;-73
2022/10/21 09:02:04;;;;;;;13.13;8.00;;;15.80;99.90;;;;;;5037896;28;20026;-76
2022/10/21 09:04:42;;;;;;;11.70;7.47;;;15.80;99.90;;;;;;5035823;28;20030;-75
2022/10/21 09:07:29;;;;;;;15.82;7.90;;;15.80;99.90;;;;;;5035202;28;20124;-74
2022/10/21 09:10:00;;;;;;;11.90;7.22;;;15.80;99.90;;;;;;5035683;28;20108;-75
2022/10/21 09:12:48;;;;;;;12.43;8.18;;;15.90;99.90;;;;;;5035938;28;20124;-75
2022/10/21 09:15:26;;;;;;;13.85;8.70;;;15.90;99.90;;;;;;5035308;28;20431;-75
2022/10/21 09:18:10;;;;;;;13.65;9.10;;;15.90;99.90;;;;;;5035855;28;20025;-76
2022/10/21 09:21:01;;;;;;;11.75;7.55;;;15.90;99.90;;;;;;5035517;28;20499;-75
2022/10/21 09:23:32;;;;;;;9.65;7.50;;;15.90;99.90;;;;;;5035619;28;20026;-75
2022/10/21 09:26:12;;;;;;;12.80;7.78;;;15.90;99.90;;;;;;5034411;28;20044;-76
2022/10/21 09:28:37;;;;;;;9.95;7.40;;;15.90;99.90;;;;;;5034744;28;20092;-76
2022/10/21 09:31:14;;;;;;;12.88;6.80;;;15.90;99.90;;;;;;5035452;28;20401;-74
2022/10/21 09:33:45;;;;;;;12.82;7.07;;;15.90;99.90;;;;;;5035184;28;20055;-74
2022/10/21 09:36:17;;;;;;;13.07;6.72;;;15.90;99.90;;;;;;5034853;28;20083;-76
2022/10/21 09:38:52;;;;;;;12.35;6.75;;;16.00;99.90;;;;;;5035285;28;20104;-75
2022/10/21 09:41:21;;;;;;;8.93;5.93;;;16.00;99.90;;;;;;5035163;28;20029;-75
2022/10/21 09:43:48;;;;;;;8.90;5.72;;;16.10;99.90;;;;;;5033852;28;20037;-77
2022/10/21 09:46:15;;;;;;;9.65;6.03;;;16.10;99.90;;;;;;5039125;28;20025;-76
2022/10/21 09:48:52;;;;;;;11.88;6.63;;;16.20;99.90;;;;;;5048881;28;20037;-76
2022/10/21 09:51:31;;;;;;;11.35;5.78;;;16.10;99.90;;;;;;5052064;28;20380;-77
2022/10/21 09:54:04;;;;;;;8.02;5.28;;;16.10;99.90;;;;;;5048406;28;20028;-74
2022/10/21 09:56:42;;;;;;;13.10;5.72;;;16.10;99.90;;;;;;5060295;28;20029;-74
2022/10/21 09:59:11;;;;;;;8.10;5.43;;;16.20;99.90;;;;;;5052429;28;20055;-75
2022/10/21 10:01:39;;;;;;;13.70;6.05;;;16.20;99.90;;;;;;5051606;28;20025;-75
2022/10/21 10:04:30;;;;;;;8.27;5.20;;;16.20;99.90;;;;;;5041806;28;20033;-75
2022/10/21 10:06:59;;;;;;;8.32;5.35;;;16.20;99.90;;;;;;5047783;28;20029;-77
2022/10/21 10:09:29;;;;;;;7.40;5.60;;;16.20;99.90;;;;;;5034092;28;20036;-76
2022/10/21 10:12:01;;;;;;;10.00;4.97;;;16.20;99.90;;;;;;5035504;28;20027;-77
2022/10/21 10:14:38;;;;;;;10.63;5.30;;;16.20;99.90;;;;;;5036182;28;20040;-75
2022/10/21 10:17:22;;;;;;;14.80;6.53;;;16.30;99.90;;;;;;5032852;28;20034;-75
2022/10/21 10:20:03;;;;;;;12.57;8.57;;;16.30;99.90;;;;;;5038629;28;20103;-74
2022/10/21 10:22:32;;;;;;;17.85;5.40;;;16.40;99.90;;;;;;5040936;28;20030;-74
2022/10/21 10:25:11;;;;;;;8.73;5.15;;;16.40;99.90;;;;;;5042817;28;20036;-73
2022/10/21 10:27:46;;;;;;;8.73;5.65;;;16.50;99.90;;;;;;5033844;28;20035;-74
2022/10/21 10:30:13;;;;;;;9.25;4.95;;;16.50;99.90;;;;;;5013748;28;20128;-73
2022/10/21 10:32:40;;;;;;;10.50;4.60;;;16.50;99.90;;;;;;5032909;28;20033;-73
2022/10/21 10:35:14;;;;;;;9.98;5.30;;;16.60;99.90;;;;;;5033885;28;20056;-74
2022/10/21 10:37:46;;;;;;;11.25;5.22;;;16.60;99.90;;;;;;5032891;28;20029;-78
2022/10/21 10:40:40;;;;;;;10.00;5.25;;;16.60;99.90;;;;;;5033889;28;20021;-75
2022/10/21 10:43:29;;;;;;;14.10;5.90;;;16.70;99.90;;;;;;5033464;28;20373;-75
2022/10/21 10:45:58;;;;;;;9.02;5.13;;;16.70;99.90;;;;;;5033534;28;20028;-75
2022/10/21 10:48:44;;;;;;;10.50;5.45;;;16.70;99.90;;;;;;5032667;28;20120;-75
2022/10/21 10:51:26;;;;;;;11.88;5.65;;;16.70;99.90;;;;;;5033329;28;20026;-75
2022/10/21 10:54:05;;;;;;;7.68;4.68;;;16.70;99.90;;;;;;5042534;28;20041;-75
2022/10/21 10:56:48;;;;;;;8.60;3.95;;;16.70;99.90;;;;;;5039157;28;20040;-75
2022/10/21 10:59:33;;;;;;;9.85;5.75;;;16.70;99.90;;;;;;5044330;28;20021;-75
2022/10/21 11:02:08;;;;;;;10.40;7.00;;;16.80;99.90;;;;;;5035924;28;20072;-75
2022/10/21 11:04:52;;;;;;;10.48;5.40;;;16.80;99.90;;;;;;5035677;28;20029;-75
2022/10/21 11:07:24;;;;;;;10.15;6.15;;;16.80;99.90;;;;;;5034759;28;20697;-76
2022/10/21 11:09:51;;;;;;;;;;;16.80;99.90;;;;;;5048967;28;20477;-76
2022/10/21 11:12:22;;;;;;;8.45;5.93;;;16.80;99.90;;;;;;5045391;28;19912;-76
2022/10/21 11:14:53;;;;;;;10.02;6.13;;;16.80;99.90;;;;;;5044470;28;20041;-76
2022/10/21 11:17:21;;;;;;;12.02;6.22;;;16.70;99.90;;;;;;5046940;28;20033;-76
2022/10/21 11:20:13;;;;;;;10.40;5.38;;;16.80;99.90;;;;;;5051156;28;20502;-75
2022/10/21 11:23:21;;;;;;;12.63;6.28;;;16.70;99.90;;;;;;5037980;28;20071;-75
2022/10/21 11:25:56;;;;;;;9.57;5.60;;;16.80;99.90;;;;;;5041913;28;20040;-75
2022/10/21 11:28:37;;;;;;;14.65;5.80;;;16.80;99.90;;;;;;5032905;28;20075;-75
2022/10/21 11:31:26;;;;;;;9.63;6.50;;;16.80;99.90;;;;;;5033176;28;20044;-75
2022/10/21 11:34:38;;;;;;;12.45;6.00;;;16.80;99.90;;;;;;5041404;28;20036;-76
2022/10/21 11:37:34;;;;;;;11.05;6.97;;;16.80;99.90;;;;;;5016663;28;20116;-75
2022/10/21 11:40:22;;;;;;;12.57;5.78;;;16.80;99.90;;;;;;5033276;28;20021;-75
2022/10/21 11:42:50;;;;;;;7.75;5.50;;;16.80;99.90;;;;;;5033064;28;20057;-75
2022/10/21 11:45:33;;;;;;;11.45;5.43;;;16.90;99.90;;;;;;5033494;28;20067;-75
2022/10/21 11:48:19;;;;;;;10.73;6.47;;;17.00;99.90;;;;;;5034292;28;20397;-74
2022/10/21 11:51:14;;;;;;;8.98;6.63;;;17.10;99.90;;;;;;5037336;28;20532;-75
2022/10/21 11:54:18;;;;;;;12.15;6.30;;;17.10;99.90;;;;;;5042551;28;20048;-75
2022/10/21 11:57:21;;;;;;;8.43;6.10;;;17.20;99.90;;;;;;5036828;28;20030;-75
2022/10/21 12:00:20;;;;;;;7.55;5.90;;;17.30;99.90;;;;;;5049278;28;20033;-75
2022/10/21 12:03:11;;;;;;;9.82;5.65;;;17.50;99.90;;;;;;5044587;28;20041;-75
2022/10/21 12:05:52;;;;;;;8.98;5.90;;;17.70;99.90;;;;;;5052908;28;20065;-75
2022/10/21 12:08:25;;;;;;;10.13;5.88;;;17.90;99.90;;;;;;5050254;28;20044;-74
2022/10/21 12:10:57;;;;;;;8.23;5.13;;;18.10;99.90;;;;;;5041680;28;20037;-74
2022/10/21 12:13:32;;;;;;;9.00;5.22;;;18.20;99.90;;;;;;5036721;28;20057;-74
2022/10/21 12:16:01;;;;;;;8.95;5.70;;;18.40;99.90;;;;;;5043640;28;20025;-74
2022/10/21 12:18:29;;;;;;;7.20;4.80;;;18.50;99.90;;;;;;5046880;28;20029;-75
2022/10/21 12:20:55;;;;;;;9.73;5.35;;;18.60;99.90;;;;;;5048608;28;20028;-74
2022/10/21 12:23:28;;;;;;;7.95;4.90;;;18.70;99.90;;;;;;5051557;28;20449;-74
2022/10/21 12:26:00;;;;;;;9.80;4.15;;;18.80;99.90;;;;;;5040190;28;20381;-75
2022/10/21 12:28:35;;;;;;;8.30;3.83;;;18.80;99.90;;;;;;5036292;28;20053;-75
2022/10/21 12:31:31;;;;;;;8.15;4.10;;;18.80;99.90;;;;;;5036100;28;20028;-75
2022/10/21 12:33:57;;;;;;;7.10;3.33;;;18.90;99.90;;;;;;5036546;28;20029;-75
2022/10/21 12:36:40;;;;;;;5.35;3.13;;;18.90;99.90;;;;;;5036636;28;20064;-75
2022/10/21 12:39:17;;;;;;;9.98;3.67;;;19.00;99.90;;;;;;5036370;28;20025;-75
2022/10/21 12:41:46;;;;;;;7.88;3.13;;;19.10;99.90;;;;;;5036449;28;20373;-75
2022/10/21 12:44:23;;;;;;;7.43;3.17;;;19.10;99.90;;;;;;5039523;28;20379;-73
2022/10/21 12:46:53;;;;;;;5.45;2.78;;;19.10;99.90;;;;;;5043234;28;20036;-75
2022/10/21 12:49:26;;;;;;;6.80;3.25;;;19.10;99.90;;;;;;5036193;28;20451;-74
2022/10/21 12:52:04;;;;;;;6.75;2.63;;;19.20;99.90;;;;;;5036162;28;20025;-74
2022/10/21 12:54:35;;;;;;;6.50;2.90;;;19.10;99.90;;;;;;5037426;28;20033;-74